Time,TemperatureF,DewpointF,PressureIn,WindDirection,WindDirectionDegrees,WindSpeedMPH,WindSpeedGustMPH,Humidity,HourlyPrecipIn,Conditions,Clouds,dailyrainin,SoftwareType,DateUTC
2013-05-08 00:01:00,59.4,51.8,30.01,ESE,112,0.9,1.1,76,0.00,BKN,,0.00,WeatherDisplay:10.37,2013-05-08 04:01:00,
2013-05-08 00:02:00,59.2,51.6,30.01,East,90,0.0,1.1,76,0.00,BKN,,0.00,WeatherDisplay:10.37,2013-05-08 04:02:00,
2013-05-08 00:05:00,59.2,52.0,30.01,East,90,1.8,2.3,77,0.00,BKN,,0.00,WeatherDisplay:10.37,2013-05-08 04:05:00,
2013-05-08 00:10:00,58.8,51.6,30.01,SSE,158,0.7,1.1,77,0.00,BKN,,0.00,WeatherDisplay:10.37,2013-05-08 04:10:00,
2013-05-08 00:15:00,58.6,51.8,30.01,SE,135,0.0,0.0,78,0.00,BKN,,0.00,WeatherDisplay:10.37,2013-05-08 04:15:00,
2013-05-08 00:20:00,58.5,51.7,30.00,ESE,112,1.5,1.7,78,0.00,BKN,,0.00,WeatherDisplay:10.37,2013-05-08 04:20:00,
2013-05-08 00:25:00,58.5,52.0,30.00,ESE,112,1.6,1.7,79,0.00,BKN,,0.00,WeatherDisplay:10.37,2013-05-08 04:25:00,
2013-05-08 00:30:00,58.3,51.8,30.00,ENE,68,0.3,1.1,79,0.00,BKN,,0.00,WeatherDisplay:10.37,2013-05-08 04:30:00,
2013-05-08 00:35:00,58.1,51.6,30.00,ESE,112,0.4,1.7,79,0.00,BKN,,0.00,WeatherDisplay:10.37,2013-05-08 04:35:00,
2013-05-08 00:40:00,57.9,51.8,30.00,SE,135,0.0,0.0,80,0.00,BKN,,0.00,WeatherDisplay:10.37,2013-05-08 04:40:00,
2013-05-08 00:45:00,57.7,51.6,30.01,ESE,112,0.0,0.0,80,0.00,BKN,,0.00,WeatherDisplay:10.37,2013-05-08 04:45:00,
2013-05-08 00:50:00,57.6,51.5,30.01,ESE,112,0.0,0.0,80,0.00,BKN,,0.00,WeatherDisplay:10.37,2013-05-08 04:50:00,
2013-05-08 00:55:00,57.2,51.8,30.00,South,180,0.0,0.0,82,0.00,BKN,,0.00,WeatherDisplay:10.37,2013-05-08 04:55:00,
2013-05-08 01:00:00,56.8,51.4,30.00,East,90,0.3,1.1,82,0.00,BKN,,0.00,WeatherDisplay:10.37,2013-05-08 05:00:00,
2013-05-08 01:05:00,56.7,51.6,30.01,ESE,112,0.0,0.0,83,0.00,BKN,,0.00,WeatherDisplay:10.37,2013-05-08 05:05:00,
2013-05-08 01:10:00,56.7,51.9,30.01,East,90,1.4,1.7,84,0.00,BKN,,0.00,WeatherDisplay:10.37,2013-05-08 05:10:00,
2013-05-08 01:15:00,56.5,51.7,30.01,SE,135,0.0,0.0,84,0.00,BKN,,0.00,WeatherDisplay:10.37,2013-05-08 05:15:00,
2013-05-08 01:20:00,56.3,51.5,30.00,SSE,158,0.0,0.0,84,0.00,BKN,,0.00,WeatherDisplay:10.37,2013-05-08 05:20:00,
2013-05-08 01:25:00,56.1,51.7,30.00,SSE,158,0.0,0.0,85,0.00,BKN,,0.00,WeatherDisplay:10.37,2013-05-08 05:25:00,
2013-05-08 01:30:00,55.9,51.5,30.00,SE,135,0.0,0.0,85,0.00,BKN,,0.00,WeatherDisplay:10.37,2013-05-08 05:30:00,
2013-05-08 01:35:00,55.9,51.5,30.00,SE,135,0.0,0.0,85,0.00,BKN,,0.00,WeatherDisplay:10.37,2013-05-08 05:35:00,
2013-05-08 01:40:00,55.8,51.7,30.00,ESE,112,1.5,1.5,86,0.00,BKN,,0.00,WeatherDisplay:10.37,2013-05-08 05:40:00,
2013-05-08 01:45:00,55.6,51.5,30.00,ESE,112,0.0,0.0,86,0.00,BKN,,0.00,WeatherDisplay:10.37,2013-05-08 05:45:00,
2013-05-08 01:50:00,55.4,51.6,30.00,ESE,112,0.0,0.0,87,0.00,BKN,,0.00,WeatherDisplay:10.37,2013-05-08 05:50:00,
2013-05-08 01:55:00,55.4,51.9,29.99,ESE,112,0.0,0.0,88,0.00,BKN,,0.00,WeatherDisplay:10.37,2013-05-08 05:55:00,
2013-05-08 02:00:00,55.2,51.7,29.99,ESE,112,0.0,0.0,88,0.00,BKN,,0.00,WeatherDisplay:10.37,2013-05-08 06:00:00,
2013-05-08 02:05:00,55.0,51.8,29.99,SE,135,0.0,0.0,89,0.00,BKN,,0.00,WeatherDisplay:10.37,2013-05-08 06:05:00,
2013-05-08 02:10:00,55.0,51.8,29.99,ESE,112,0.0,0.0,89,0.00,BKN,,0.00,WeatherDisplay:10.37,2013-05-08 06:10:00,
2013-05-08 02:15:00,54.9,51.7,29.99,ESE,112,0.0,0.0,89,0.00,BKN,,0.00,WeatherDisplay:10.37,2013-05-08 06:15:00,
2013-05-08 02:20:00,54.7,51.5,29.99,ESE,112,0.0,0.0,89,0.00,BKN,,0.00,WeatherDisplay:10.37,2013-05-08 06:20:00,
2013-05-08 02:25:00,54.5,51.6,29.99,ESE,112,0.0,0.0,90,0.00,BKN,,0.00,WeatherDisplay:10.37,2013-05-08 06:25:00,
2013-05-08 02:30:00,54.5,51.6,29.99,ESE,112,1.6,1.7,90,0.00,BKN,,0.00,WeatherDisplay:10.37,2013-05-08 06:30:00,
2013-05-08 02:35:00,54.5,51.6,29.99,SE,135,1.7,1.7,90,0.00,BKN,,0.00,WeatherDisplay:10.37,2013-05-08 06:35:00,
2013-05-08 02:40:00,54.5,51.6,29.99,ESE,112,2.2,2.3,90,0.00,BKN,,0.00,WeatherDisplay:10.37,2013-05-08 06:40:00,
2013-05-08 02:45:00,54.7,51.8,29.99,SSE,158,1.7,1.7,90,0.00,BKN,,0.00,WeatherDisplay:10.37,2013-05-08 06:45:00,
2013-05-08 02:50:00,54.7,51.8,29.99,SE,135,1.9,2.3,90,0.00,BKN,,0.00,WeatherDisplay:10.37,2013-05-08 06:50:00,
2013-05-08 02:55:00,54.7,51.8,29.99,East,90,1.7,2.3,90,0.00,BKN,,0.00,WeatherDisplay:10.37,2013-05-08 06:55:00,
2013-05-08 03:00:00,54.7,51.8,29.99,SE,135,1.6,2.3,90,0.00,BKN,,0.00,WeatherDisplay:10.37,2013-05-08 07:00:00,
2013-05-08 03:05:00,54.5,51.6,29.99,ESE,112,0.9,1.7,90,0.00,BKN,,0.00,WeatherDisplay:10.37,2013-05-08 07:05:00,
2013-05-08 03:10:00,54.3,51.4,29.99,ESE,112,0.0,0.0,90,0.00,BKN,,0.00,WeatherDisplay:10.37,2013-05-08 07:10:00,
2013-05-08 03:15:00,54.1,51.5,29.99,SSE,158,0.0,0.0,91,0.00,BKN,,0.00,WeatherDisplay:10.37,2013-05-08 07:15:00,
2013-05-08 03:20:00,54.0,51.4,29.99,SE,135,0.0,0.0,91,0.00,BKN,,0.00,WeatherDisplay:10.37,2013-05-08 07:20:00,
2013-05-08 03:25:00,53.8,51.2,29.99,SE,135,0.0,0.0,91,0.00,BKN,,0.00,WeatherDisplay:10.37,2013-05-08 07:25:00,
2013-05-08 03:30:00,53.6,51.3,29.99,ESE,112,0.0,0.0,92,0.00,BKN,,0.00,WeatherDisplay:10.37,2013-05-08 07:30:00,
2013-05-08 03:35:00,53.4,51.1,29.99,ESE,112,0.0,0.0,92,0.00,BKN,,0.00,WeatherDisplay:10.37,2013-05-08 07:35:00,
2013-05-08 03:40:00,53.4,51.4,29.99,SE,135,0.0,0.0,93,0.00,BKN,,0.00,WeatherDisplay:10.37,2013-05-08 07:40:00,
2013-05-08 03:45:00,53.2,51.2,29.99,SE,135,0.0,0.0,93,0.00,BKN,,0.00,WeatherDisplay:10.37,2013-05-08 07:45:00,
2013-05-08 03:50:00,53.1,51.1,29.99,ESE,112,0.0,0.0,93,0.00,BKN,,0.00,WeatherDisplay:10.37,2013-05-08 07:50:00,
2013-05-08 03:55:00,52.7,50.7,29.99,ESE,112,0.0,0.0,93,0.00,BKN,,0.00,WeatherDisplay:10.37,2013-05-08 07:55:00,
2013-05-08 04:00:00,52.5,50.8,29.99,ESE,112,0.0,0.0,94,0.00,BKN,,0.00,WeatherDisplay:10.37,2013-05-08 08:00:00,
2013-05-08 04:05:00,52.3,50.6,29.99,SE,135,0.0,0.0,94,0.00,BKN,,0.00,WeatherDisplay:10.37,2013-05-08 08:05:00,
2013-05-08 04:10:00,52.5,51.1,29.99,SSE,158,0.0,0.0,95,0.00,BKN,,0.00,WeatherDisplay:10.37,2013-05-08 08:10:00,
2013-05-08 04:15:00,52.5,51.1,29.99,SSE,158,0.0,0.0,95,0.00,BKN,,0.00,WeatherDisplay:10.37,2013-05-08 08:15:00,
2013-05-08 04:20:00,52.3,50.9,29.99,ESE,112,0.0,1.7,95,0.00,BKN,,0.00,WeatherDisplay:10.37,2013-05-08 08:20:00,
2013-05-08 04:25:00,52.5,51.1,29.99,SE,135,0.0,0.0,95,0.00,BKN,,0.00,WeatherDisplay:10.37,2013-05-08 08:25:00,
2013-05-08 04:30:00,52.5,51.1,29.99,East,90,1.9,2.3,95,0.00,BKN,,0.00,WeatherDisplay:10.37,2013-05-08 08:30:00,
2013-05-08 04:35:00,52.7,51.3,29.99,ESE,112,0.2,1.1,95,0.00,BKN,,0.00,WeatherDisplay:10.37,2013-05-08 08:35:00,
2013-05-08 04:40:00,52.9,51.5,29.99,East,90,0.8,1.7,95,0.00,BKN,,0.00,WeatherDisplay:10.37,2013-05-08 08:40:00,
2013-05-08 04:45:00,53.1,51.7,29.99,ESE,112,1.0,1.1,95,0.00,BKN,,0.00,WeatherDisplay:10.37,2013-05-08 08:45:00,
2013-05-08 04:50:00,53.1,51.7,29.99,ESE,112,0.4,1.1,95,0.00,BKN,,0.00,WeatherDisplay:10.37,2013-05-08 08:50:00,
2013-05-08 04:55:00,53.2,51.8,29.99,SSE,158,1.8,2.3,95,0.00,BKN,,0.00,WeatherDisplay:10.37,2013-05-08 08:55:00,
2013-05-08 05:00:00,53.4,52.0,29.99,ESE,112,0.6,2.2,95,0.00,BKN,,0.00,WeatherDisplay:10.37,2013-05-08 09:00:00,
2013-05-08 05:05:00,54.0,52.6,29.99,SSE,158,1.9,2.3,95,0.00,BKN,,0.00,WeatherDisplay:10.37,2013-05-08 09:05:00,
2013-05-08 05:10:00,54.1,52.4,29.99,ENE,68,1.6,1.7,94,0.00,BKN,,0.00,WeatherDisplay:10.37,2013-05-08 09:10:00,
2013-05-08 05:15:00,54.1,52.4,29.99,ESE,112,2.0,2.3,94,0.00,BKN,,0.00,WeatherDisplay:10.37,2013-05-08 09:15:00,
2013-05-08 05:20:00,54.3,52.6,29.99,ESE,112,1.7,1.7,94,0.00,BKN,,0.00,WeatherDisplay:10.37,2013-05-08 09:20:00,
2013-05-08 05:25:00,54.7,52.7,29.99,ESE,112,1.7,1.7,93,0.00,BKN,,0.00,WeatherDisplay:10.37,2013-05-08 09:25:00,
2013-05-08 05:30:00,54.9,52.6,30.00,ESE,112,1.6,1.7,92,0.00,BKN,,0.00,WeatherDisplay:10.37,2013-05-08 09:30:00,
2013-05-08 05:35:00,54.9,52.6,30.00,ESE,112,0.0,0.0,92,0.00,BKN,,0.00,WeatherDisplay:10.37,2013-05-08 09:35:00,
2013-05-08 05:40:00,54.9,52.6,30.00,ESE,112,0.3,1.1,92,0.00,BKN,,0.00,WeatherDisplay:10.37,2013-05-08 09:40:00,
2013-05-08 05:45:00,55.0,52.7,30.00,SSE,158,0.0,0.0,92,0.00,BKN,,0.00,WeatherDisplay:10.37,2013-05-08 09:45:00,
2013-05-08 05:50:00,55.0,52.4,30.00,SE,135,0.0,0.0,91,0.00,BKN,,0.00,WeatherDisplay:10.37,2013-05-08 09:50:00,
2013-05-08 05:55:00,55.2,52.6,30.00,SSE,158,0.0,0.0,91,0.00,BKN,,0.00,WeatherDisplay:10.37,2013-05-08 09:55:00,
2013-05-08 06:00:00,55.2,52.6,30.00,SE,135,0.0,1.1,91,0.00,BKN,,0.00,WeatherDisplay:10.37,2013-05-08 10:00:00,
2013-05-08 06:05:00,55.2,52.3,29.99,SE,135,0.0,0.0,90,0.00,BKN,,0.00,WeatherDisplay:10.37,2013-05-08 10:05:00,
2013-05-08 06:10:00,55.2,52.3,29.99,ESE,112,0.0,0.0,90,0.00,BKN,,0.00,WeatherDisplay:10.37,2013-05-08 10:10:00,
2013-05-08 06:15:00,55.2,52.3,29.99,East,90,0.0,0.0,90,0.00,BKN,,0.00,WeatherDisplay:10.37,2013-05-08 10:15:00,
2013-05-08 06:20:00,55.2,52.3,29.99,ENE,68,0.0,0.0,90,0.00,BKN,,0.00,WeatherDisplay:10.37,2013-05-08 10:20:00,
2013-05-08 06:25:00,55.2,52.6,29.99,South,180,0.0,0.0,91,0.00,BKN,,0.00,WeatherDisplay:10.37,2013-05-08 10:25:00,
2013-05-08 06:30:00,55.4,52.8,30.00,South,180,0.0,0.0,91,0.00,BKN,,0.00,WeatherDisplay:10.37,2013-05-08 10:30:00,
2013-05-08 06:35:00,55.6,53.0,30.00,SSW,202,0.0,0.0,91,0.00,BKN,,0.00,WeatherDisplay:10.37,2013-05-08 10:35:00,
2013-05-08 06:40:00,55.8,53.2,30.00,SSW,202,0.0,0.0,91,0.00,BKN,,0.00,WeatherDisplay:10.37,2013-05-08 10:40:00,
2013-05-08 06:45:00,55.9,53.0,30.00,SSW,202,0.0,0.0,90,0.00,BKN,,0.00,WeatherDisplay:10.37,2013-05-08 10:45:00,
2013-05-08 06:50:00,56.1,53.2,30.00,NNW,338,0.0,0.0,90,0.00,BKN,,0.00,WeatherDisplay:10.37,2013-05-08 10:50:00,
2013-05-08 06:55:00,56.5,53.6,30.00,SSE,158,0.0,1.1,90,0.00,BKN,,0.00,WeatherDisplay:10.37,2013-05-08 10:55:00,
2013-05-08 07:00:00,56.7,53.8,30.00,ESE,112,0.0,0.0,90,0.00,BKN,,0.00,WeatherDisplay:10.37,2013-05-08 11:00:00,
2013-05-08 07:05:00,57.2,54.0,30.00,ESE,112,0.0,0.0,89,0.00,BKN,,0.00,WeatherDisplay:10.37,2013-05-08 11:05:00,
2013-05-08 07:10:00,57.7,54.2,30.00,ESE,112,0.0,0.0,88,0.00,BKN,,0.00,WeatherDisplay:10.37,2013-05-08 11:10:00,
2013-05-08 07:15:00,58.3,54.4,30.00,ENE,68,0.0,0.0,87,0.00,BKN,,0.00,WeatherDisplay:10.37,2013-05-08 11:15:00,
2013-05-08 07:20:00,58.8,54.3,30.01,NE,45,0.0,0.0,85,0.00,BKN,,0.00,WeatherDisplay:10.37,2013-05-08 11:20:00,
2013-05-08 07:25:00,59.2,54.7,30.01,NNE,22,0.0,0.0,85,0.00,BKN,,0.00,WeatherDisplay:10.37,2013-05-08 11:25:00,
2013-05-08 07:30:00,59.9,54.4,30.01,North,360,0.0,0.0,82,0.00,BKN,,0.00,WeatherDisplay:10.37,2013-05-08 11:30:00,
2013-05-08 07:35:00,60.3,54.8,30.01,ESE,112,0.0,0.0,82,0.00,BKN,,0.00,WeatherDisplay:10.37,2013-05-08 11:35:00,
2013-05-08 07:40:00,60.6,54.7,30.01,East,90,0.0,0.0,81,0.00,BKN,,0.00,WeatherDisplay:10.37,2013-05-08 11:40:00,
2013-05-08 07:45:00,61.0,54.8,30.01,NNE,22,0.3,1.1,80,0.00,BKN,,0.00,WeatherDisplay:10.37,2013-05-08 11:45:00,
2013-05-08 07:50:00,61.5,55.3,30.01,NE,45,0.0,0.0,80,0.00,BKN,,0.00,WeatherDisplay:10.37,2013-05-08 11:50:00,
2013-05-08 07:55:00,62.1,55.2,30.01,East,90,0.0,0.0,78,0.00,BKN,,0.00,WeatherDisplay:10.37,2013-05-08 11:55:00,
2013-05-08 08:00:00,62.8,55.5,30.01,East,90,0.0,1.1,77,0.00,BKN,,0.00,WeatherDisplay:10.37,2013-05-08 12:00:00,
2013-05-08 08:05:00,63.3,55.2,30.01,ESE,112,0.0,0.0,75,0.00,BKN,,0.00,WeatherDisplay:10.37,2013-05-08 12:05:00,
2013-05-08 08:10:00,63.9,55.4,30.01,East,90,0.7,2.3,74,0.00,BKN,,0.00,WeatherDisplay:10.37,2013-05-08 12:10:00,
2013-05-08 08:15:00,64.0,55.5,30.01,South,180,2.9,3.5,74,0.00,BKN,,0.00,WeatherDisplay:10.37,2013-05-08 12:15:00,
2013-05-08 08:20:00,64.0,55.2,30.02,ENE,68,1.8,2.7,73,0.00,BKN,,0.00,WeatherDisplay:10.37,2013-05-08 12:20:00,
2013-05-08 08:25:00,64.0,55.2,30.02,East,90,0.4,2.3,73,0.00,BKN,,0.00,WeatherDisplay:10.37,2013-05-08 12:25:00,
2013-05-08 08:30:00,63.9,55.4,30.02,ESE,112,1.8,2.3,74,0.00,BKN,,0.00,WeatherDisplay:10.37,2013-05-08 12:30:00,
2013-05-08 08:35:00,63.7,55.3,30.02,SSE,158,2.4,4.6,74,0.00,BKN,,0.00,WeatherDisplay:10.37,2013-05-08 12:35:00,
2013-05-08 08:40:00,63.7,54.5,30.02,ESE,112,4.2,4.6,72,0.00,BKN,,0.00,WeatherDisplay:10.37,2013-05-08 12:40:00,
2013-05-08 08:45:00,63.5,55.1,30.02,SE,135,2.0,2.7,74,0.00,BKN,,0.00,WeatherDisplay:10.37,2013-05-08 12:45:00,
2013-05-08 08:50:00,63.5,54.7,30.02,SSE,158,3.3,3.7,73,0.00,BKN,,0.00,WeatherDisplay:10.37,2013-05-08 12:50:00,
2013-05-08 08:55:00,63.5,54.7,30.02,ESE,112,2.6,3.5,73,0.00,BKN,,0.00,WeatherDisplay:10.37,2013-05-08 12:55:00,
2013-05-08 09:00:00,63.9,55.4,30.02,WNW,292,2.4,2.4,74,0.00,BKN,,0.00,WeatherDisplay:10.37,2013-05-08 13:00:00,
2013-05-08 09:05:00,63.9,55.4,30.02,ENE,68,2.6,2.6,74,0.00,-RA,,0.00,WeatherDisplay:10.37,2013-05-08 13:05:00,
2013-05-08 09:10:00,64.0,55.5,30.02,East,90,2.1,2.3,74,0.00,-RA,,0.00,WeatherDisplay:10.37,2013-05-08 13:10:00,
2013-05-08 09:15:00,64.4,56.3,30.02,West,270,0.7,1.1,75,0.00,-RA,,0.00,WeatherDisplay:10.37,2013-05-08 13:15:00,
2013-05-08 09:20:00,64.9,56.0,30.02,SSE,158,0.0,1.1,73,0.00,-RA,,0.00,WeatherDisplay:10.37,2013-05-08 13:20:00,
2013-05-08 09:25:00,65.3,56.0,30.02,ESE,112,2.1,2.7,72,0.00,-RA,,0.00,WeatherDisplay:10.37,2013-05-08 13:25:00,
2013-05-08 09:30:00,65.7,56.0,30.02,East,90,2.2,2.3,71,0.00,-RA,,0.00,WeatherDisplay:10.37,2013-05-08 13:30:00,
2013-05-08 09:35:00,65.8,56.1,30.02,NNW,338,1.3,2.3,71,0.00,-RA,,0.00,WeatherDisplay:10.37,2013-05-08 13:35:00,
2013-05-08 09:40:00,66.0,56.3,30.02,ESE,112,1.7,2.7,71,0.00,-RA,,0.00,WeatherDisplay:10.37,2013-05-08 13:40:00,
2013-05-08 09:45:00,65.8,55.7,30.02,ESE,112,2.4,2.7,70,0.00,-RA,,0.00,WeatherDisplay:10.37,2013-05-08 13:45:00,
2013-05-08 09:50:00,65.8,56.1,30.02,NE,45,2.7,2.7,71,0.00,-RA,,0.00,WeatherDisplay:10.37,2013-05-08 13:50:00,
2013-05-08 09:55:00,66.0,55.9,30.02,NNE,22,1.5,1.5,70,0.00,-RA,,0.00,WeatherDisplay:10.37,2013-05-08 13:55:00,
2013-05-08 10:00:00,66.4,55.9,30.02,SSE,158,2.2,2.3,69,0.00,-RA,,0.00,WeatherDisplay:10.37,2013-05-08 14:00:00,
2013-05-08 10:05:00,67.3,56.4,30.01,NNE,22,1.1,1.1,68,0.00,-RA,,0.00,WeatherDisplay:10.37,2013-05-08 14:05:00,
2013-05-08 10:10:00,67.5,56.6,30.01,SE,135,1.8,2.3,68,0.00,-RA,,0.00,WeatherDisplay:10.37,2013-05-08 14:10:00,
2013-05-08 10:15:00,67.6,56.2,30.01,West,270,0.9,2.3,67,0.00,-RA,,0.00,WeatherDisplay:10.37,2013-05-08 14:15:00,
2013-05-08 10:20:00,68.0,56.2,30.01,ESE,112,1.8,2.3,66,0.00,-RA,,0.00,WeatherDisplay:10.37,2013-05-08 14:20:00,
2013-05-08 10:25:00,68.4,56.2,30.01,NE,45,0.0,0.0,65,0.00,-RA,,0.00,WeatherDisplay:10.37,2013-05-08 14:25:00,
2013-05-08 10:30:00,68.2,56.4,30.01,SE,135,2.0,2.7,66,0.00,-RA,,0.00,WeatherDisplay:10.37,2013-05-08 14:30:00,
2013-05-08 10:35:00,69.1,57.3,30.01,ESE,112,1.5,2.2,66,0.00,-RA,,0.00,WeatherDisplay:10.37,2013-05-08 14:35:00,
2013-05-08 10:40:00,69.4,57.5,30.01,ESE,112,2.3,3.5,66,0.00,-RA,,0.00,WeatherDisplay:10.37,2013-05-08 14:40:00,
2013-05-08 10:45:00,69.4,57.1,30.01,SE,135,2.6,3.5,65,0.00,-RA,,0.00,WeatherDisplay:10.37,2013-05-08 14:45:00,
2013-05-08 10:50:00,69.6,57.7,30.01,SSE,158,2.3,2.3,66,0.00,-RA,,0.00,WeatherDisplay:10.37,2013-05-08 14:50:00,
2013-05-08 10:55:00,69.6,57.3,30.01,SE,135,2.0,3.5,65,0.00,-RA,,0.00,WeatherDisplay:10.37,2013-05-08 14:55:00,
2013-05-08 11:00:00,69.4,57.1,30.01,ESE,112,3.6,3.7,65,0.00,-RA,,0.00,WeatherDisplay:10.37,2013-05-08 15:00:00,
2013-05-08 11:05:00,67.5,57.4,30.01,ESE,112,4.3,5.8,70,0.00,BKN,,0.00,WeatherDisplay:10.37,2013-05-08 15:05:00,
2013-05-08 11:10:00,67.6,58.2,30.01,ESE,112,3.2,4.2,72,0.00,BKN,,0.00,WeatherDisplay:10.37,2013-05-08 15:10:00,
2013-05-08 11:15:00,68.4,57.8,30.01,SE,135,4.7,6.3,69,0.00,BKN,,0.00,WeatherDisplay:10.37,2013-05-08 15:15:00,
2013-05-08 11:20:00,68.4,57.0,30.00,ESE,112,5.2,6.9,67,0.00,BKN,,0.00,WeatherDisplay:10.37,2013-05-08 15:20:00,
2013-05-08 11:25:00,68.0,56.6,30.00,SSE,158,5.5,9.2,67,0.00,BKN,,0.00,WeatherDisplay:10.37,2013-05-08 15:25:00,
2013-05-08 11:30:00,68.0,57.0,30.00,ESE,112,5.2,6.9,68,0.00,BKN,,0.00,WeatherDisplay:10.37,2013-05-08 15:30:00,
2013-05-08 11:35:00,68.0,56.6,30.00,ESE,112,3.3,5.8,67,0.00,BKN,,0.00,WeatherDisplay:10.37,2013-05-08 15:35:00,
2013-05-08 11:40:00,68.4,57.0,30.00,ESE,112,3.7,4.7,67,0.00,BKN,,0.00,WeatherDisplay:10.37,2013-05-08 15:40:00,
2013-05-08 11:45:00,68.4,57.0,30.00,ESE,112,5.3,6.8,67,0.00,BKN,,0.00,WeatherDisplay:10.37,2013-05-08 15:45:00,
2013-05-08 11:50:00,68.2,56.8,30.00,ESE,112,4.9,5.8,67,0.00,BKN,,0.00,WeatherDisplay:10.37,2013-05-08 15:50:00,
2013-05-08 11:55:00,68.0,57.4,30.00,ESE,112,4.1,4.6,69,0.00,BKN,,0.00,WeatherDisplay:10.37,2013-05-08 15:55:00,
2013-05-08 12:00:00,67.5,57.4,30.00,SSE,158,7.0,8.1,70,0.00,BKN,,0.00,WeatherDisplay:10.37,2013-05-08 16:00:00,
2013-05-08 12:05:00,67.1,57.0,30.00,SE,135,2.3,3.5,70,0.00,BKN,,0.00,WeatherDisplay:10.37,2013-05-08 16:05:00,
2013-05-08 12:10:00,67.1,56.6,30.00,South,180,3.4,4.6,69,0.00,BKN,,0.00,WeatherDisplay:10.37,2013-05-08 16:10:00,
2013-05-08 12:15:00,67.5,57.0,30.00,East,90,3.6,4.6,69,0.00,BKN,,0.00,WeatherDisplay:10.37,2013-05-08 16:15:00,
2013-05-08 12:20:00,67.8,57.7,30.00,ESE,112,5.0,5.8,70,0.00,BKN,,0.00,WeatherDisplay:10.37,2013-05-08 16:20:00,
2013-05-08 12:25:00,67.8,57.7,30.00,West,270,0.6,2.7,70,0.00,BKN,,0.00,WeatherDisplay:10.37,2013-05-08 16:25:00,
2013-05-08 12:30:00,67.8,57.3,30.00,ESE,112,3.1,4.2,69,0.00,BKN,,0.00,WeatherDisplay:10.37,2013-05-08 16:30:00,
2013-05-08 12:35:00,68.4,57.8,30.00,SE,135,3.8,4.7,69,0.00,BKN,,0.00,WeatherDisplay:10.37,2013-05-08 16:35:00,
2013-05-08 12:40:00,68.4,57.8,30.00,East,90,2.7,3.7,69,0.00,BKN,,0.00,WeatherDisplay:10.37,2013-05-08 16:40:00,
2013-05-08 12:45:00,68.2,57.2,29.99,ESE,112,4.9,5.8,68,0.00,BKN,,0.00,WeatherDisplay:10.37,2013-05-08 16:45:00,
2013-05-08 12:50:00,68.7,57.7,29.99,ESE,112,3.8,5.8,68,0.00,BKN,,0.00,WeatherDisplay:10.37,2013-05-08 16:50:00,
2013-05-08 12:55:00,68.4,57.4,29.99,SSE,158,2.6,4.6,68,0.00,BKN,,0.00,WeatherDisplay:10.37,2013-05-08 16:55:00,
2013-05-08 13:00:00,69.4,58.0,29.99,ENE,68,3.0,3.0,67,0.00,BKN,,0.00,WeatherDisplay:10.37,2013-05-08 17:00:00,
2013-05-08 13:05:00,68.9,57.5,29.99,ESE,112,4.2,4.6,67,0.00,OVC,,0.00,WeatherDisplay:10.37,2013-05-08 17:05:00,
2013-05-08 13:10:00,69.1,57.7,29.99,ESE,112,3.2,4.6,67,0.00,OVC,,0.00,WeatherDisplay:10.37,2013-05-08 17:10:00,
2013-05-08 13:15:00,69.3,58.3,29.99,East,90,1.9,3.2,68,0.00,OVC,,0.00,WeatherDisplay:10.37,2013-05-08 17:15:00,
2013-05-08 13:20:00,70.3,58.8,29.99,East,90,3.0,3.7,67,0.00,OVC,,0.00,WeatherDisplay:10.37,2013-05-08 17:20:00,
2013-05-08 13:25:00,69.6,57.7,29.99,ESE,112,3.7,5.8,66,0.00,OVC,,0.00,WeatherDisplay:10.37,2013-05-08 17:25:00,
2013-05-08 13:30:00,69.4,57.1,29.98,SSE,158,3.8,4.6,65,0.00,OVC,,0.00,WeatherDisplay:10.37,2013-05-08 17:30:00,
2013-05-08 13:35:00,69.4,57.5,29.98,ESE,112,4.6,5.8,66,0.00,OVC,,0.00,WeatherDisplay:10.37,2013-05-08 17:35:00,
2013-05-08 13:40:00,69.4,57.5,29.98,SSE,158,3.7,4.6,66,0.00,OVC,,0.00,WeatherDisplay:10.37,2013-05-08 17:40:00,
2013-05-08 13:45:00,69.6,57.7,29.98,ESE,112,4.3,4.6,66,0.00,OVC,,0.00,WeatherDisplay:10.37,2013-05-08 17:45:00,
2013-05-08 13:50:00,69.6,56.9,29.98,ESE,112,4.7,5.8,64,0.00,OVC,,0.00,WeatherDisplay:10.37,2013-05-08 17:50:00,
2013-05-08 13:55:00,69.8,57.1,29.97,ESE,112,4.2,6.9,64,0.00,OVC,,0.00,WeatherDisplay:10.37,2013-05-08 17:55:00,
2013-05-08 14:00:00,69.8,57.5,29.97,SE,135,4.7,4.7,65,0.00,OVC,,0.00,WeatherDisplay:10.37,2013-05-08 18:00:00,
2013-05-08 14:05:00,70.0,57.3,29.98,ENE,68,4.0,4.6,64,0.00,OVC,,0.00,WeatherDisplay:10.37,2013-05-08 18:05:00,
2013-05-08 14:10:00,70.0,57.7,29.98,East,90,6.9,9.4,65,0.00,OVC,,0.00,WeatherDisplay:10.37,2013-05-08 18:10:00,
2013-05-08 14:15:00,69.1,58.5,29.98,East,90,5.9,6.9,69,0.00,OVC,,0.00,WeatherDisplay:10.37,2013-05-08 18:15:00,
2013-05-08 14:20:00,67.3,58.7,29.98,ESE,112,7.9,10.4,74,0.00,OVC,,0.00,WeatherDisplay:10.37,2013-05-08 18:20:00,
2013-05-08 14:25:00,65.1,59.8,29.98,ESE,112,5.1,6.9,83,0.01,RA,,0.02,WeatherDisplay:10.37,2013-05-08 18:25:00,
2013-05-08 14:30:00,64.6,60.0,29.98,SSE,158,4.2,4.6,85,0.03,RA,,0.03,WeatherDisplay:10.37,2013-05-08 18:30:00,
2013-05-08 14:35:00,64.0,60.1,29.98,SSE,158,3.8,4.7,87,0.04,RA,,0.04,WeatherDisplay:10.37,2013-05-08 18:35:00,
2013-05-08 14:40:00,64.8,60.8,29.98,ESE,112,4.1,5.8,87,0.04,RA,,0.04,WeatherDisplay:10.37,2013-05-08 18:40:00,
2013-05-08 14:45:00,64.8,60.5,29.98,ESE,112,4.7,5.8,86,0.04,OVC,,0.05,WeatherDisplay:10.37,2013-05-08 18:45:00,
2013-05-08 14:50:00,65.1,61.8,29.98,ESE,112,2.9,4.6,89,0.05,RA,,0.05,WeatherDisplay:10.37,2013-05-08 18:50:00,
2013-05-08 14:55:00,65.1,61.1,29.98,SE,135,5.9,6.9,87,0.05,RA,,0.05,WeatherDisplay:10.37,2013-05-08 18:55:00,
2013-05-08 15:00:00,65.3,61.3,29.98,ENE,68,3.1,4.2,87,0.05,OVC,,0.05,WeatherDisplay:10.37,2013-05-08 19:00:00,
2013-05-08 15:05:00,65.3,61.3,29.98,SE,135,5.1,5.8,87,0.05,OVC,,0.05,WeatherDisplay:10.37,2013-05-08 19:05:00,
2013-05-08 15:10:00,65.1,61.1,29.98,East,90,4.6,5.8,87,0.05,OVC,,0.05,WeatherDisplay:10.37,2013-05-08 19:10:00,
2013-05-08 15:15:00,64.9,60.9,29.98,South,180,4.3,4.6,87,0.05,OVC,,0.05,WeatherDisplay:10.37,2013-05-08 19:15:00,
2013-05-08 15:20:00,64.8,60.8,29.98,ESE,112,4.8,5.8,87,0.05,OVC,,0.05,WeatherDisplay:10.37,2013-05-08 19:20:00,
2013-05-08 15:25:00,64.9,60.9,29.98,SSE,158,4.8,5.8,87,0.04,-RA,,0.05,WeatherDisplay:10.37,2013-05-08 19:25:00,
2013-05-08 15:30:00,64.8,60.8,29.97,South,180,4.0,5.8,87,0.02,-RA,,0.05,WeatherDisplay:10.37,2013-05-08 19:30:00,
2013-05-08 15:35:00,64.2,60.9,29.97,East,90,4.9,5.8,89,0.01,-RA,,0.05,WeatherDisplay:10.37,2013-05-08 19:35:00,
2013-05-08 15:40:00,64.4,61.1,29.97,SSE,158,4.4,5.8,89,0.01,-RA,,0.05,WeatherDisplay:10.37,2013-05-08 19:40:00,
2013-05-08 15:45:00,64.4,61.1,29.97,East,90,3.2,3.5,89,0.01,-RA,,0.05,WeatherDisplay:10.37,2013-05-08 19:45:00,
2013-05-08 15:50:00,64.9,61.3,29.97,SSE,158,2.2,3.5,88,0.00,-RA,,0.05,WeatherDisplay:10.37,2013-05-08 19:50:00,
2013-05-08 15:55:00,65.3,62.3,29.96,SE,135,3.5,4.6,90,0.00,-RA,,0.05,WeatherDisplay:10.37,2013-05-08 19:55:00,
2013-05-08 16:00:00,65.7,62.4,29.96,ESE,112,2.6,3.5,89,0.00,-RA,,0.05,WeatherDisplay:10.37,2013-05-08 20:00:00,
2013-05-08 16:05:00,65.3,61.3,29.96,NE,45,3.3,4.2,87,0.00,-RA,,0.05,WeatherDisplay:10.37,2013-05-08 20:05:00,
2013-05-08 16:10:00,65.5,61.2,29.96,SE,135,2.9,3.7,86,0.00,-RA,,0.05,WeatherDisplay:10.37,2013-05-08 20:10:00,
2013-05-08 16:15:00,65.3,60.7,29.96,SSE,158,3.8,6.3,85,0.00,-RA,,0.05,WeatherDisplay:10.37,2013-05-08 20:15:00,
2013-05-08 16:20:00,65.3,60.7,29.96,ESE,112,2.9,4.7,85,0.00,-RA,,0.05,WeatherDisplay:10.37,2013-05-08 20:20:00,
2013-05-08 16:25:00,66.2,61.2,29.96,SSE,158,3.9,4.7,84,0.00,-RA,,0.05,WeatherDisplay:10.37,2013-05-08 20:25:00,
2013-05-08 16:30:00,65.7,61.1,29.96,SE,135,3.3,3.7,85,0.00,-RA,,0.05,WeatherDisplay:10.37,2013-05-08 20:30:00,
2013-05-08 16:35:00,67.1,61.8,29.96,SE,135,1.9,2.3,83,0.00,-RA,,0.05,WeatherDisplay:10.37,2013-05-08 20:35:00,
2013-05-08 16:40:00,66.4,60.7,29.96,NE,45,2.1,3.5,82,0.00,-RA,,0.05,WeatherDisplay:10.37,2013-05-08 20:40:00,
2013-05-08 16:45:00,66.6,60.9,29.95,ENE,68,2.5,3.5,82,0.00,-RA,,0.05,WeatherDisplay:10.37,2013-05-08 20:45:00,
2013-05-08 16:50:00,66.9,61.2,29.95,SSE,158,3.2,4.6,82,0.00,-RA,,0.05,WeatherDisplay:10.37,2013-05-08 20:50:00,
2013-05-08 16:55:00,68.5,61.7,29.95,East,90,2.0,2.3,79,0.00,-RA,,0.05,WeatherDisplay:10.37,2013-05-08 20:55:00,
2013-05-08 17:00:00,68.7,61.2,29.95,ESE,112,2.0,2.7,77,0.00,-RA,,0.05,WeatherDisplay:10.37,2013-05-08 21:00:00,
2013-05-08 17:05:00,67.8,61.4,29.94,SSE,158,1.7,2.3,80,0.00,BKN,,0.05,WeatherDisplay:10.37,2013-05-08 21:05:00,
2013-05-08 17:10:00,67.5,61.8,29.94,SW,225,0.0,0.0,82,0.03,RA,,0.08,WeatherDisplay:10.37,2013-05-08 21:10:00,
2013-05-08 17:15:00,66.0,61.0,29.94,SE,135,3.3,3.7,84,0.04,RA,,0.09,WeatherDisplay:10.37,2013-05-08 21:15:00,
2013-05-08 17:20:00,64.0,60.7,29.95,SSE,158,3.4,4.6,89,0.04,RA,,0.09,WeatherDisplay:10.37,2013-05-08 21:20:00,
2013-05-08 17:25:00,63.9,60.6,29.95,South,180,2.2,2.7,89,0.05,RA,,0.11,WeatherDisplay:10.37,2013-05-08 21:25:00,
2013-05-08 17:30:00,63.3,60.6,29.94,SSE,158,3.8,4.6,91,0.07,RA,,0.12,WeatherDisplay:10.37,2013-05-08 21:30:00,
2013-05-08 17:35:00,63.1,60.7,29.94,East,90,2.3,2.3,92,0.07,RA,,0.12,WeatherDisplay:10.37,2013-05-08 21:35:00,
2013-05-08 17:40:00,63.1,60.7,29.94,ESE,112,3.4,3.7,92,0.08,RA,,0.13,WeatherDisplay:10.37,2013-05-08 21:40:00,
2013-05-08 17:45:00,63.0,60.6,29.94,SE,135,3.4,3.7,92,0.08,RA,,0.13,WeatherDisplay:10.37,2013-05-08 21:45:00,
2013-05-08 17:50:00,63.0,61.2,29.94,SE,135,2.6,3.5,94,0.08,BKN,,0.13,WeatherDisplay:10.37,2013-05-08 21:50:00,
2013-05-08 17:55:00,62.6,60.8,29.95,South,180,4.1,4.7,94,0.08, +RA,,0.13,WeatherDisplay:10.37,2013-05-08 21:55:00,
2013-05-08 18:00:00,62.6,60.8,29.95,ESE,112,3.8,4.7,94,0.08, +RA,,0.13,WeatherDisplay:10.37,2013-05-08 22:00:00,
2013-05-08 18:05:00,62.6,60.8,29.94,East,90,3.9,4.6,94,0.08,BKN,,0.13,WeatherDisplay:10.37,2013-05-08 22:05:00,
2013-05-08 18:10:00,62.6,60.8,29.94,SE,135,3.4,4.6,94,0.05,BKN,,0.13,WeatherDisplay:10.37,2013-05-08 22:10:00,
2013-05-08 18:15:00,62.8,61.0,29.94,ENE,68,1.3,1.3,94,0.04,BKN,,0.13,WeatherDisplay:10.37,2013-05-08 22:15:00,
2013-05-08 18:20:00,62.8,61.0,29.93,NE,45,2.0,2.3,94,0.04,BKN,,0.13,WeatherDisplay:10.37,2013-05-08 22:20:00,
2013-05-08 18:25:00,63.0,61.2,29.93,NNE,22,0.9,1.7,94,0.03,BKN,,0.13,WeatherDisplay:10.37,2013-05-08 22:25:00,
2013-05-08 18:30:00,62.8,60.7,29.93,ESE,112,2.1,2.7,93,0.01,BKN,,0.13,WeatherDisplay:10.37,2013-05-08 22:30:00,
2013-05-08 18:35:00,62.8,60.7,29.93,East,90,2.6,2.6,93,0.01,BKN,,0.13,WeatherDisplay:10.37,2013-05-08 22:35:00,
2013-05-08 18:40:00,62.6,60.8,29.93,East,90,2.6,3.2,94,0.00,BKN,,0.13,WeatherDisplay:10.37,2013-05-08 22:40:00,
2013-05-08 18:45:00,62.2,60.2,29.93,ESE,112,2.7,3.5,93,0.00,BKN,,0.13,WeatherDisplay:10.37,2013-05-08 22:45:00,
2013-05-08 18:50:00,62.1,60.4,29.93,East,90,2.7,3.5,94,0.00,BKN,,0.13,WeatherDisplay:10.37,2013-05-08 22:50:00,
2013-05-08 18:55:00,61.7,60.0,29.93,SE,135,2.6,3.5,94,0.00,BKN,,0.13,WeatherDisplay:10.37,2013-05-08 22:55:00,
2013-05-08 19:00:00,61.5,59.8,29.93,NNE,22,2.4,3.5,94,0.00,BKN,,0.13,WeatherDisplay:10.37,2013-05-08 23:00:00,
2013-05-08 19:05:00,61.5,60.1,29.92,NE,45,1.2,2.3,95,0.00,OVC,,0.13,WeatherDisplay:10.37,2013-05-08 23:05:00,
2013-05-08 19:10:00,61.5,60.1,29.92,East,90,2.3,2.7,95,0.00,OVC,,0.13,WeatherDisplay:10.37,2013-05-08 23:10:00,
2013-05-08 19:15:00,61.5,60.1,29.92,NE,45,3.7,3.7,95,0.00,OVC,,0.13,WeatherDisplay:10.37,2013-05-08 23:15:00,
2013-05-08 19:20:00,61.5,60.1,29.93,NNE,22,3.0,3.5,95,0.00,OVC,,0.13,WeatherDisplay:10.37,2013-05-08 23:20:00,
2013-05-08 19:25:00,61.3,59.9,29.93,ESE,112,2.0,3.5,95,0.00,OVC,,0.13,WeatherDisplay:10.37,2013-05-08 23:25:00,
2013-05-08 19:30:00,61.3,59.9,29.92,ESE,112,3.0,3.7,95,0.00,OVC,,0.13,WeatherDisplay:10.37,2013-05-08 23:30:00,
2013-05-08 19:35:00,61.3,59.9,29.92,ENE,68,2.5,3.2,95,0.00,OVC,,0.13,WeatherDisplay:10.37,2013-05-08 23:35:00,
2013-05-08 19:40:00,61.0,59.6,29.93,ENE,68,2.7,3.5,95,0.00,OVC,,0.13,WeatherDisplay:10.37,2013-05-08 23:40:00,
2013-05-08 19:45:00,60.8,59.4,29.93,East,90,3.0,4.6,95,0.00,OVC,,0.13,WeatherDisplay:10.37,2013-05-08 23:45:00,
2013-05-08 19:50:00,60.6,59.2,29.93,East,90,2.2,3.7,95,0.00,OVC,,0.13,WeatherDisplay:10.37,2013-05-08 23:50:00,
2013-05-08 19:55:00,60.4,59.0,29.93,SE,135,3.3,3.5,95,0.00,OVC,,0.13,WeatherDisplay:10.37,2013-05-08 23:55:00,
2013-05-08 20:00:00,60.3,58.9,29.93,ESE,112,2.9,3.5,95,0.00,OVC,,0.13,WeatherDisplay:10.37,2013-05-09 00:00:00,
2013-05-08 20:05:00,60.1,58.7,29.92,SE,135,2.7,3.2,95,0.00,OVC,,0.13,WeatherDisplay:10.37,2013-05-09 00:05:00,
2013-05-08 20:10:00,60.1,58.7,29.92,ESE,112,2.0,2.7,95,0.00,OVC,,0.13,WeatherDisplay:10.37,2013-05-09 00:10:00,
2013-05-08 20:15:00,59.9,58.5,29.92,East,90,1.7,3.5,95,0.00,OVC,,0.13,WeatherDisplay:10.37,2013-05-09 00:15:00,
2013-05-08 20:20:00,59.7,58.3,29.92,ENE,68,1.8,2.3,95,0.00,OVC,,0.13,WeatherDisplay:10.37,2013-05-09 00:20:00,
2013-05-08 20:25:00,59.5,58.1,29.92,ESE,112,2.6,3.5,95,0.00,OVC,,0.13,WeatherDisplay:10.37,2013-05-09 00:25:00,
2013-05-08 20:30:00,59.4,58.0,29.93,ESE,112,1.0,2.3,95,0.00,OVC,,0.13,WeatherDisplay:10.37,2013-05-09 00:30:00,
2013-05-08 20:35:00,59.4,58.0,29.93,East,90,1.3,1.7,95,0.00,OVC,,0.13,WeatherDisplay:10.37,2013-05-09 00:35:00,
2013-05-08 20:40:00,59.4,58.0,29.93,ESE,112,1.8,2.3,95,0.00,OVC,,0.13,WeatherDisplay:10.37,2013-05-09 00:40:00,
2013-05-08 20:45:00,59.4,58.0,29.92,SSE,158,2.1,2.3,95,0.00,OVC,,0.13,WeatherDisplay:10.37,2013-05-09 00:45:00,
2013-05-08 20:50:00,59.2,57.8,29.92,NE,45,1.7,2.3,95,0.00,OVC,,0.13,WeatherDisplay:10.37,2013-05-09 00:50:00,
2013-05-08 20:55:00,59.2,57.8,29.92,ESE,112,2.0,2.3,95,0.00,OVC,,0.13,WeatherDisplay:10.37,2013-05-09 00:55:00,
2013-05-08 21:00:00,59.0,57.6,29.92,SSE,158,1.7,1.7,95,0.00,OVC,,0.13,WeatherDisplay:10.37,2013-05-09 01:00:00,
2013-05-08 21:05:00,59.0,57.6,29.92,SSE,158,2.0,2.3,95,0.00,OVC,,0.13,WeatherDisplay:10.37,2013-05-09 01:05:00,
2013-05-08 21:10:00,59.0,57.6,29.92,SSE,158,1.9,2.3,95,0.00,OVC,,0.13,WeatherDisplay:10.37,2013-05-09 01:10:00,
2013-05-08 21:15:00,59.0,57.6,29.92,SSE,158,2.2,2.3,95,0.00,OVC,,0.13,WeatherDisplay:10.37,2013-05-09 01:15:00,
2013-05-08 21:20:00,58.8,57.4,29.92,SE,135,1.9,2.3,95,0.00,OVC,,0.13,WeatherDisplay:10.37,2013-05-09 01:20:00,
2013-05-08 21:25:00,58.6,57.2,29.92,SE,135,1.7,2.3,95,0.00,OVC,,0.13,WeatherDisplay:10.37,2013-05-09 01:25:00,
2013-05-08 21:30:00,58.5,57.1,29.93,ESE,112,0.0,1.1,95,0.00,OVC,,0.13,WeatherDisplay:10.37,2013-05-09 01:30:00,
2013-05-08 21:35:00,58.3,56.9,29.93,NNE,22,0.0,0.0,95,0.00,OVC,,0.13,WeatherDisplay:10.37,2013-05-09 01:35:00,
2013-05-08 21:40:00,58.1,56.7,29.93,NNE,22,0.0,0.0,95,0.00,OVC,,0.13,WeatherDisplay:10.37,2013-05-09 01:40:00,
2013-05-08 21:45:00,57.7,56.3,29.93,NNE,22,0.0,0.0,95,0.00,OVC,,0.13,WeatherDisplay:10.37,2013-05-09 01:45:00,
2013-05-08 21:50:00,57.6,56.2,29.93,NNE,22,0.0,0.0,95,0.00,OVC,,0.13,WeatherDisplay:10.37,2013-05-09 01:50:00,
2013-05-08 21:55:00,57.4,56.0,29.93,NNE,22,0.0,0.0,95,0.00,OVC,,0.13,WeatherDisplay:10.37,2013-05-09 01:55:00,
2013-05-08 22:00:00,57.4,56.0,29.93,NNE,22,0.0,0.0,95,0.00,OVC,,0.13,WeatherDisplay:10.37,2013-05-09 02:00:00,
2013-05-08 22:05:00,57.4,56.0,29.94,West,270,1.4,1.7,95,0.00,BKN,,0.13,WeatherDisplay:10.37,2013-05-09 02:05:00,
2013-05-08 22:10:00,57.4,56.0,29.94,SW,225,0.0,0.0,95,0.00,BKN,,0.13,WeatherDisplay:10.37,2013-05-09 02:10:00,
2013-05-08 22:15:00,57.2,55.8,29.94,SW,225,0.0,0.0,95,0.00,BKN,,0.13,WeatherDisplay:10.37,2013-05-09 02:15:00,
2013-05-08 22:20:00,57.0,55.6,29.94,SW,225,0.0,0.0,95,0.00,BKN,,0.13,WeatherDisplay:10.37,2013-05-09 02:20:00,
2013-05-08 22:25:00,56.8,55.4,29.94,SW,225,0.0,0.0,95,0.00,BKN,,0.13,WeatherDisplay:10.37,2013-05-09 02:25:00,
2013-05-08 22:30:00,56.8,55.4,29.93,SW,225,0.0,0.0,95,0.00,BKN,,0.13,WeatherDisplay:10.37,2013-05-09 02:30:00,
2013-05-08 22:35:00,56.8,55.4,29.93,West,270,0.0,0.0,95,0.00,BKN,,0.13,WeatherDisplay:10.37,2013-05-09 02:35:00,
2013-05-08 22:40:00,56.8,55.4,29.93,West,270,0.5,1.1,95,0.00,BKN,,0.13,WeatherDisplay:10.37,2013-05-09 02:40:00,
2013-05-08 22:45:00,57.0,55.6,29.93,West,270,0.0,1.1,95,0.00,BKN,,0.13,WeatherDisplay:10.37,2013-05-09 02:45:00,
2013-05-08 22:50:00,57.0,55.6,29.93,ESE,112,0.0,0.0,95,0.00,BKN,,0.13,WeatherDisplay:10.37,2013-05-09 02:50:00,
2013-05-08 22:55:00,57.0,55.6,29.93,SSW,202,0.0,0.0,95,0.00,BKN,,0.13,WeatherDisplay:10.37,2013-05-09 02:55:00,
2013-05-08 23:00:00,57.0,55.6,29.93,North,360,1.8,2.3,95,0.00,BKN,,0.13,WeatherDisplay:10.37,2013-05-09 03:00:00,
2013-05-08 23:05:00,57.0,55.6,29.92,WSW,248,0.0,0.0,95,0.00,-RA,,0.13,WeatherDisplay:10.37,2013-05-09 03:05:00,
2013-05-08 23:10:00,57.2,55.8,29.92,NW,315,0.0,1.1,95,0.00,-RA,,0.13,WeatherDisplay:10.37,2013-05-09 03:10:00,
2013-05-08 23:15:00,57.2,55.8,29.92,WNW,292,0.0,0.0,95,0.00,-RA,,0.13,WeatherDisplay:10.37,2013-05-09 03:15:00,
2013-05-08 23:20:00,57.2,55.8,29.92,WNW,292,0.0,1.1,95,0.00,-RA,,0.13,WeatherDisplay:10.37,2013-05-09 03:20:00,
2013-05-08 23:25:00,57.4,56.0,29.92,NNE,22,0.0,0.0,95,0.00,-RA,,0.13,WeatherDisplay:10.37,2013-05-09 03:25:00,
2013-05-08 23:30:00,57.6,56.2,29.92,SE,135,0.0,0.0,95,0.00,-RA,,0.13,WeatherDisplay:10.37,2013-05-09 03:30:00,
2013-05-08 23:35:00,57.4,56.0,29.92,West,270,0.0,0.0,95,0.00,-RA,,0.13,WeatherDisplay:10.37,2013-05-09 03:35:00,
2013-05-08 23:40:00,57.4,56.0,29.92,WSW,248,0.0,0.0,95,0.00,-RA,,0.13,WeatherDisplay:10.37,2013-05-09 03:40:00,
2013-05-08 23:45:00,57.2,55.8,29.92,East,90,0.0,0.0,95,0.00,-RA,,0.13,WeatherDisplay:10.37,2013-05-09 03:45:00,
2013-05-08 23:50:00,57.2,55.8,29.92,ESE,112,0.0,0.0,95,0.00,-RA,,0.13,WeatherDisplay:10.37,2013-05-09 03:50:00,
2013-05-08 23:55:00,57.2,55.8,29.92,ESE,112,0.0,0.0,95,0.00,-RA,,0.13,WeatherDisplay:10.37,2013-05-09 03:55:00,